sensor_id;sensor_type;location;lat;lon;timestamp;P1;durP1;ratioP1;P2;durP2;ratioP2
67597;SDS011;62026;39.230;9.122;2023-08-31T00:00:48;9.65;;;3.10;;
67597;SDS011;62026;39.230;9.122;2023-08-31T00:03:16;13.65;;;4.10;;
67597;SDS011;62026;39.230;9.122;2023-08-31T00:05:43;10.00;;;2.97;;
67597;SDS011;62026;39.230;9.122;2023-08-31T00:08:09;7.85;;;2.65;;
67597;SDS011;62026;39.230;9.122;2023-08-31T00:10:36;7.75;;;2.47;;
67597;SDS011;62026;39.230;9.122;2023-08-31T00:13:03;7.70;;;2.60;;
67597;SDS011;62026;39.230;9.122;2023-08-31T00:15:31;6.35;;;2.30;;
67597;SDS011;62026;39.230;9.122;2023-08-31T00:18:00;12.35;;;2.72;;
67597;SDS011;62026;39.230;9.122;2023-08-31T00:20:32;4.97;;;2.42;;
67597;SDS011;62026;39.230;9.122;2023-08-31T00:22:59;7.65;;;2.67;;
67597;SDS011;62026;39.230;9.122;2023-08-31T00:25:25;9.07;;;2.80;;
67597;SDS011;62026;39.230;9.122;2023-08-31T00:27:52;13.80;;;2.50;;
67597;SDS011;62026;39.230;9.122;2023-08-31T00:30:20;8.02;;;2.53;;
67597;SDS011;62026;39.230;9.122;2023-08-31T00:32:46;6.53;;;2.40;;
67597;SDS011;62026;39.230;9.122;2023-08-31T00:35:16;7.05;;;2.28;;
67597;SDS011;62026;39.230;9.122;2023-08-31T00:37:42;5.18;;;2.30;;
67597;SDS011;62026;39.230;9.122;2023-08-31T00:40:08;5.88;;;2.60;;
67597;SDS011;62026;39.230;9.122;2023-08-31T00:42:38;10.18;;;2.33;;
67597;SDS011;62026;39.230;9.122;2023-08-31T00:45:05;8.38;;;2.78;;
67597;SDS011;62026;39.230;9.122;2023-08-31T00:47:32;6.88;;;2.28;;
67597;SDS011;62026;39.230;9.122;2023-08-31T00:49:58;8.32;;;2.65;;
67597;SDS011;62026;39.230;9.122;2023-08-31T00:52:26;7.70;;;2.55;;
67597;SDS011;62026;39.230;9.122;2023-08-31T00:54:52;8.20;;;2.03;;
67597;SDS011;62026;39.230;9.122;2023-08-31T00:57:19;7.95;;;2.60;;
67597;SDS011;62026;39.230;9.122;2023-08-31T00:59:45;12.98;;;2.38;;
67597;SDS011;62026;39.230;9.122;2023-08-31T01:02:17;6.53;;;2.58;;
67597;SDS011;62026;39.230;9.122;2023-08-31T01:13:38;4.78;;;2.03;;
67597;SDS011;62026;39.230;9.122;2023-08-31T01:16:09;5.05;;;2.08;;
67597;SDS011;62026;39.230;9.122;2023-08-31T01:18:38;5.10;;;2.22;;
67597;SDS011;62026;39.230;9.122;2023-08-31T01:24:00;7.70;;;2.20;;
67597;SDS011;62026;39.230;9.122;2023-08-31T01:26:28;8.70;;;2.20;;
67597;SDS011;62026;39.230;9.122;2023-08-31T01:28:54;13.52;;;2.38;;
67597;SDS011;62026;39.230;9.122;2023-08-31T01:31:21;12.90;;;2.30;;
67597;SDS011;62026;39.230;9.122;2023-08-31T01:33:47;6.13;;;2.15;;
67597;SDS011;62026;39.230;9.122;2023-08-31T01:36:29;10.40;;;2.25;;
67597;SDS011;62026;39.230;9.122;2023-08-31T01:39:06;7.03;;;2.40;;
67597;SDS011;62026;39.230;9.122;2023-08-31T01:42:13;4.50;;;2.28;;
67597;SDS011;62026;39.230;9.122;2023-08-31T01:44:42;4.97;;;1.95;;
67597;SDS011;62026;39.230;9.122;2023-08-31T01:47:13;5.97;;;2.53;;
67597;SDS011;62026;39.230;9.122;2023-08-31T01:49:44;6.72;;;2.08;;
67597;SDS011;62026;39.230;9.122;2023-08-31T01:52:10;5.40;;;2.25;;
67597;SDS011;62026;39.230;9.122;2023-08-31T01:54:36;12.23;;;2.40;;
67597;SDS011;62026;39.230;9.122;2023-08-31T01:57:05;5.45;;;2.25;;
67597;SDS011;62026;39.230;9.122;2023-08-31T01:59:32;5.00;;;2.10;;
67597;SDS011;62026;39.230;9.122;2023-08-31T02:01:59;7.10;;;2.30;;
67597;SDS011;62026;39.230;9.122;2023-08-31T02:04:26;7.35;;;2.40;;
67597;SDS011;62026;39.230;9.122;2023-08-31T02:06:52;9.18;;;2.45;;
67597;SDS011;62026;39.230;9.122;2023-08-31T02:09:18;8.20;;;2.30;;
67597;SDS011;62026;39.230;9.122;2023-08-31T02:11:45;6.57;;;2.33;;
67597;SDS011;62026;39.230;9.122;2023-08-31T02:14:11;9.00;;;2.00;;
67597;SDS011;62026;39.230;9.122;2023-08-31T02:16:37;7.20;;;2.22;;
67597;SDS011;62026;39.230;9.122;2023-08-31T02:19:03;5.15;;;2.00;;
67597;SDS011;62026;39.230;9.122;2023-08-31T02:21:29;5.70;;;2.15;;
67597;SDS011;62026;39.230;9.122;2023-08-31T02:23:55;7.78;;;2.67;;
67597;SDS011;62026;39.230;9.122;2023-08-31T02:26:21;6.47;;;2.35;;
67597;SDS011;62026;39.230;9.122;2023-08-31T02:28:47;7.97;;;2.55;;
67597;SDS011;62026;39.230;9.122;2023-08-31T02:31:13;9.32;;;2.03;;
67597;SDS011;62026;39.230;9.122;2023-08-31T02:33:43;6.72;;;2.25;;
67597;SDS011;62026;39.230;9.122;2023-08-31T02:36:12;11.52;;;2.45;;
67597;SDS011;62026;39.230;9.122;2023-08-31T02:38:40;9.35;;;3.33;;
67597;SDS011;62026;39.230;9.122;2023-08-31T02:41:06;7.63;;;2.20;;
67597;SDS011;62026;39.230;9.122;2023-08-31T02:43:32;7.45;;;2.17;;
67597;SDS011;62026;39.230;9.122;2023-08-31T02:45:59;5.53;;;2.13;;
67597;SDS011;62026;39.230;9.122;2023-08-31T02:48:26;6.00;;;2.22;;
67597;SDS011;62026;39.230;9.122;2023-08-31T02:50:53;7.32;;;2.10;;
67597;SDS011;62026;39.230;9.122;2023-08-31T02:53:19;10.63;;;2.45;;
67597;SDS011;62026;39.230;9.122;2023-08-31T02:55:45;8.07;;;1.88;;
67597;SDS011;62026;39.230;9.122;2023-08-31T02:58:11;7.07;;;2.25;;
67597;SDS011;62026;39.230;9.122;2023-08-31T03:00:37;6.90;;;1.80;;
67597;SDS011;62026;39.230;9.122;2023-08-31T03:03:08;5.93;;;1.73;;
67597;SDS011;62026;39.230;9.122;2023-08-31T03:05:34;10.40;;;2.35;;
67597;SDS011;62026;39.230;9.122;2023-08-31T03:08:00;7.07;;;2.05;;
67597;SDS011;62026;39.230;9.122;2023-08-31T03:10:26;7.18;;;2.40;;
67597;SDS011;62026;39.230;9.122;2023-08-31T03:12:52;9.70;;;2.28;;
67597;SDS011;62026;39.230;9.122;2023-08-31T03:15:18;6.15;;;2.40;;
67597;SDS011;62026;39.230;9.122;2023-08-31T03:17:44;6.75;;;2.13;;
67597;SDS011;62026;39.230;9.122;2023-08-31T03:20:10;5.70;;;1.98;;
67597;SDS011;62026;39.230;9.122;2023-08-31T03:22:36;10.30;;;2.30;;
67597;SDS011;62026;39.230;9.122;2023-08-31T03:25:02;7.38;;;2.42;;
67597;SDS011;62026;39.230;9.122;2023-08-31T03:27:29;9.55;;;2.00;;
67597;SDS011;62026;39.230;9.122;2023-08-31T03:29:54;6.20;;;2.00;;
67597;SDS011;62026;39.230;9.122;2023-08-31T03:32:21;6.75;;;2.30;;
67597;SDS011;62026;39.230;9.122;2023-08-31T03:34:48;8.93;;;2.25;;
67597;SDS011;62026;39.230;9.122;2023-08-31T03:37:15;6.38;;;1.85;;
67597;SDS011;62026;39.230;9.122;2023-08-31T03:39:41;7.13;;;2.03;;
67597;SDS011;62026;39.230;9.122;2023-08-31T03:42:08;7.13;;;2.33;;
67597;SDS011;62026;39.230;9.122;2023-08-31T03:44:35;8.63;;;1.95;;
67597;SDS011;62026;39.230;9.122;2023-08-31T03:47:02;6.22;;;2.10;;
67597;SDS011;62026;39.230;9.122;2023-08-31T03:49:29;8.38;;;2.28;;
67597;SDS011;62026;39.230;9.122;2023-08-31T03:51:57;9.07;;;2.00;;
67597;SDS011;62026;39.230;9.122;2023-08-31T03:54:23;6.43;;;2.00;;
67597;SDS011;62026;39.230;9.122;2023-08-31T03:56:51;7.88;;;2.50;;
67597;SDS011;62026;39.230;9.122;2023-08-31T03:59:17;6.75;;;2.08;;
67597;SDS011;62026;39.230;9.122;2023-08-31T04:01:44;6.53;;;2.15;;
67597;SDS011;62026;39.230;9.122;2023-08-31T04:04:11;12.52;;;2.45;;
67597;SDS011;62026;39.230;9.122;2023-08-31T04:06:37;9.80;;;2.40;;
67597;SDS011;62026;39.230;9.122;2023-08-31T04:09:05;8.90;;;2.38;;
67597;SDS011;62026;39.230;9.122;2023-08-31T04:11:32;12.57;;;2.50;;
67597;SDS011;62026;39.230;9.122;2023-08-31T04:13:58;8.30;;;2.10;;
67597;SDS011;62026;39.230;9.122;2023-08-31T04:16:24;5.32;;;2.03;;
67597;SDS011;62026;39.230;9.122;2023-08-31T04:18:51;13.95;;;2.42;;
67597;SDS011;62026;39.230;9.122;2023-08-31T04:21:17;12.90;;;2.40;;
67597;SDS011;62026;39.230;9.122;2023-08-31T04:23:43;8.60;;;2.47;;
67597;SDS011;62026;39.230;9.122;2023-08-31T04:26:13;8.90;;;2.53;;
67597;SDS011;62026;39.230;9.122;2023-08-31T04:28:42;12.98;;;3.00;;
67597;SDS011;62026;39.230;9.122;2023-08-31T04:31:09;9.77;;;2.75;;
67597;SDS011;62026;39.230;9.122;2023-08-31T04:33:36;9.80;;;2.17;;
67597;SDS011;62026;39.230;9.122;2023-08-31T04:36:04;7.50;;;2.20;;
67597;SDS011;62026;39.230;9.122;2023-08-31T04:38:31;11.70;;;2.97;;
67597;SDS011;62026;39.230;9.122;2023-08-31T04:40:59;9.18;;;2.35;;
67597;SDS011;62026;39.230;9.122;2023-08-31T04:43:25;8.23;;;2.20;;
67597;SDS011;62026;39.230;9.122;2023-08-31T04:45:52;8.30;;;2.38;;
67597;SDS011;62026;39.230;9.122;2023-08-31T04:48:19;11.27;;;2.42;;
67597;SDS011;62026;39.230;9.122;2023-08-31T04:50:45;6.93;;;2.28;;
67597;SDS011;62026;39.230;9.122;2023-08-31T04:53:11;9.10;;;2.70;;
67597;SDS011;62026;39.230;9.122;2023-08-31T04:55:37;9.93;;;2.45;;
67597;SDS011;62026;39.230;9.122;2023-08-31T04:58:03;6.55;;;2.28;;
67597;SDS011;62026;39.230;9.122;2023-08-31T05:00:29;9.50;;;2.60;;
67597;SDS011;62026;39.230;9.122;2023-08-31T05:02:57;6.28;;;2.30;;
67597;SDS011;62026;39.230;9.122;2023-08-31T05:05:23;12.02;;;2.75;;
67597;SDS011;62026;39.230;9.122;2023-08-31T05:07:49;9.65;;;2.75;;
67597;SDS011;62026;39.230;9.122;2023-08-31T05:10:15;8.52;;;2.15;;
67597;SDS011;62026;39.230;9.122;2023-08-31T05:12:42;7.70;;;2.63;;
67597;SDS011;62026;39.230;9.122;2023-08-31T05:15:08;9.65;;;2.70;;
67597;SDS011;62026;39.230;9.122;2023-08-31T05:17:34;6.45;;;2.63;;
67597;SDS011;62026;39.230;9.122;2023-08-31T05:20:00;9.80;;;2.63;;
67597;SDS011;62026;39.230;9.122;2023-08-31T05:22:29;9.77;;;2.53;;
67597;SDS011;62026;39.230;9.122;2023-08-31T05:24:55;8.80;;;2.90;;
67597;SDS011;62026;39.230;9.122;2023-08-31T05:27:21;11.85;;;2.90;;
67597;SDS011;62026;39.230;9.122;2023-08-31T05:29:47;15.88;;;3.85;;
67597;SDS011;62026;39.230;9.122;2023-08-31T05:32:13;11.93;;;2.95;;
67597;SDS011;62026;39.230;9.122;2023-08-31T05:34:39;11.98;;;2.83;;
67597;SDS011;62026;39.230;9.122;2023-08-31T05:37:05;10.73;;;2.88;;
67597;SDS011;62026;39.230;9.122;2023-08-31T05:39:31;6.45;;;2.45;;
67597;SDS011;62026;39.230;9.122;2023-08-31T05:41:57;12.73;;;3.25;;
67597;SDS011;62026;39.230;9.122;2023-08-31T05:44:23;11.05;;;2.88;;
67597;SDS011;62026;39.230;9.122;2023-08-31T05:46:49;8.98;;;2.38;;
67597;SDS011;62026;39.230;9.122;2023-08-31T05:49:15;8.23;;;2.33;;
67597;SDS011;62026;39.230;9.122;2023-08-31T05:51:41;12.00;;;2.83;;
67597;SDS011;62026;39.230;9.122;2023-08-31T05:54:07;9.27;;;2.67;;
67597;SDS011;62026;39.230;9.122;2023-08-31T05:56:38;7.65;;;2.55;;
67597;SDS011;62026;39.230;9.122;2023-08-31T05:59:08;9.85;;;2.60;;
67597;SDS011;62026;39.230;9.122;2023-08-31T06:01:37;9.38;;;2.80;;
67597;SDS011;62026;39.230;9.122;2023-08-31T06:04:03;7.50;;;2.40;;
67597;SDS011;62026;39.230;9.122;2023-08-31T06:06:30;9.88;;;2.55;;
67597;SDS011;62026;39.230;9.122;2023-08-31T06:08:57;8.10;;;2.20;;
67597;SDS011;62026;39.230;9.122;2023-08-31T06:11:23;9.35;;;3.08;;
67597;SDS011;62026;39.230;9.122;2023-08-31T06:13:49;8.13;;;2.40;;
67597;SDS011;62026;39.230;9.122;2023-08-31T06:16:15;10.45;;;2.65;;
67597;SDS011;62026;39.230;9.122;2023-08-31T06:18:41;11.65;;;2.78;;
67597;SDS011;62026;39.230;9.122;2023-08-31T06:21:08;10.18;;;2.88;;
67597;SDS011;62026;39.230;9.122;2023-08-31T06:23:35;5.28;;;2.33;;
67597;SDS011;62026;39.230;9.122;2023-08-31T06:26:01;13.20;;;3.00;;
67597;SDS011;62026;39.230;9.122;2023-08-31T06:28:27;9.57;;;2.47;;
67597;SDS011;62026;39.230;9.122;2023-08-31T06:30:53;13.43;;;2.63;;
67597;SDS011;62026;39.230;9.122;2023-08-31T06:33:18;10.52;;;2.25;;
67597;SDS011;62026;39.230;9.122;2023-08-31T06:35:47;12.68;;;2.50;;
67597;SDS011;62026;39.230;9.122;2023-08-31T06:38:16;11.45;;;2.30;;
67597;SDS011;62026;39.230;9.122;2023-08-31T06:40:43;9.90;;;2.47;;
67597;SDS011;62026;39.230;9.122;2023-08-31T06:43:10;10.98;;;2.50;;
67597;SDS011;62026;39.230;9.122;2023-08-31T06:45:36;9.23;;;2.53;;
67597;SDS011;62026;39.230;9.122;2023-08-31T06:48:02;8.82;;;2.65;;
67597;SDS011;62026;39.230;9.122;2023-08-31T06:50:29;9.30;;;2.30;;
67597;SDS011;62026;39.230;9.122;2023-08-31T06:52:55;11.43;;;2.60;;
67597;SDS011;62026;39.230;9.122;2023-08-31T06:55:21;7.93;;;2.20;;
67597;SDS011;62026;39.230;9.122;2023-08-31T06:57:48;11.63;;;2.78;;
67597;SDS011;62026;39.230;9.122;2023-08-31T07:00:14;15.50;;;2.95;;
67597;SDS011;62026;39.230;9.122;2023-08-31T07:02:40;10.90;;;3.17;;
67597;SDS011;62026;39.230;9.122;2023-08-31T07:05:07;10.73;;;2.65;;
67597;SDS011;62026;39.230;9.122;2023-08-31T07:07:35;12.32;;;3.20;;
67597;SDS011;62026;39.230;9.122;2023-08-31T07:10:01;13.77;;;2.90;;
67597;SDS011;62026;39.230;9.122;2023-08-31T07:12:27;10.80;;;2.65;;
67597;SDS011;62026;39.230;9.122;2023-08-31T07:14:53;11.52;;;2.50;;
67597;SDS011;62026;39.230;9.122;2023-08-31T07:17:19;8.95;;;2.20;;
67597;SDS011;62026;39.230;9.122;2023-08-31T07:19:45;7.90;;;2.25;;
67597;SDS011;62026;39.230;9.122;2023-08-31T07:22:11;9.63;;;2.13;;
67597;SDS011;62026;39.230;9.122;2023-08-31T07:24:37;8.20;;;2.33;;
67597;SDS011;62026;39.230;9.122;2023-08-31T07:27:03;12.40;;;2.30;;
67597;SDS011;62026;39.230;9.122;2023-08-31T07:29:31;13.65;;;2.08;;
67597;SDS011;62026;39.230;9.122;2023-08-31T07:31:57;11.40;;;2.80;;
67597;SDS011;62026;39.230;9.122;2023-08-31T07:34:23;12.50;;;2.20;;
67597;SDS011;62026;39.230;9.122;2023-08-31T07:36:49;12.43;;;2.40;;
67597;SDS011;62026;39.230;9.122;2023-08-31T07:39:16;9.40;;;2.90;;
67597;SDS011;62026;39.230;9.122;2023-08-31T07:41:44;5.75;;;2.33;;
67597;SDS011;62026;39.230;9.122;2023-08-31T07:44:10;5.13;;;2.17;;
67597;SDS011;62026;39.230;9.122;2023-08-31T07:46:36;6.40;;;1.98;;
67597;SDS011;62026;39.230;9.122;2023-08-31T07:49:02;5.43;;;2.00;;
67597;SDS011;62026;39.230;9.122;2023-08-31T07:51:29;8.63;;;2.40;;
67597;SDS011;62026;39.230;9.122;2023-08-31T07:53:56;7.20;;;2.40;;
67597;SDS011;62026;39.230;9.122;2023-08-31T07:56:22;6.97;;;2.40;;
67597;SDS011;62026;39.230;9.122;2023-08-31T07:58:51;9.70;;;2.30;;
67597;SDS011;62026;39.230;9.122;2023-08-31T08:01:17;9.00;;;2.50;;
67597;SDS011;62026;39.230;9.122;2023-08-31T08:03:42;7.47;;;2.42;;
67597;SDS011;62026;39.230;9.122;2023-08-31T08:06:08;13.80;;;2.30;;
67597;SDS011;62026;39.230;9.122;2023-08-31T08:08:34;6.43;;;2.22;;
67597;SDS011;62026;39.230;9.122;2023-08-31T08:11:00;7.75;;;2.42;;
67597;SDS011;62026;39.230;9.122;2023-08-31T08:13:28;5.55;;;1.80;;
67597;SDS011;62026;39.230;9.122;2023-08-31T08:15:54;9.27;;;2.28;;
67597;SDS011;62026;39.230;9.122;2023-08-31T08:18:19;8.07;;;2.50;;
67597;SDS011;62026;39.230;9.122;2023-08-31T08:20:52;4.88;;;1.90;;
67597;SDS011;62026;39.230;9.122;2023-08-31T08:23:18;8.75;;;2.05;;
67597;SDS011;62026;39.230;9.122;2023-08-31T08:25:44;5.45;;;2.13;;
67597;SDS011;62026;39.230;9.122;2023-08-31T08:28:10;7.72;;;2.25;;
67597;SDS011;62026;39.230;9.122;2023-08-31T08:30:36;5.43;;;1.90;;
67597;SDS011;62026;39.230;9.122;2023-08-31T08:33:02;6.18;;;2.20;;
67597;SDS011;62026;39.230;9.122;2023-08-31T08:35:28;8.48;;;2.20;;
67597;SDS011;62026;39.230;9.122;2023-08-31T08:37:54;4.80;;;1.90;;
67597;SDS011;62026;39.230;9.122;2023-08-31T08:40:20;4.18;;;2.00;;
67597;SDS011;62026;39.230;9.122;2023-08-31T08:42:47;7.72;;;2.17;;
67597;SDS011;62026;39.230;9.122;2023-08-31T08:45:14;5.88;;;2.17;;
67597;SDS011;62026;39.230;9.122;2023-08-31T08:47:42;8.07;;;2.03;;
67597;SDS011;62026;39.230;9.122;2023-08-31T08:50:12;7.63;;;1.93;;
67597;SDS011;62026;39.230;9.122;2023-08-31T08:52:39;6.63;;;2.20;;
67597;SDS011;62026;39.230;9.122;2023-08-31T08:55:06;4.40;;;2.00;;
67597;SDS011;62026;39.230;9.122;2023-08-31T08:57:34;11.48;;;1.98;;
67597;SDS011;62026;39.230;9.122;2023-08-31T09:00:00;8.65;;;2.30;;
67597;SDS011;62026;39.230;9.122;2023-08-31T09:02:28;8.27;;;2.35;;
67597;SDS011;62026;39.230;9.122;2023-08-31T09:04:54;7.32;;;2.20;;
67597;SDS011;62026;39.230;9.122;2023-08-31T09:07:20;6.40;;;2.40;;
67597;SDS011;62026;39.230;9.122;2023-08-31T09:09:53;6.20;;;1.88;;
67597;SDS011;62026;39.230;9.122;2023-08-31T09:12:23;5.03;;;1.85;;
67597;SDS011;62026;39.230;9.122;2023-08-31T09:17:39;5.72;;;1.88;;
67597;SDS011;62026;39.230;9.122;2023-08-31T09:20:12;8.35;;;2.03;;
67597;SDS011;62026;39.230;9.122;2023-08-31T09:22:38;5.53;;;1.80;;
67597;SDS011;62026;39.230;9.122;2023-08-31T09:25:12;6.90;;;2.10;;
67597;SDS011;62026;39.230;9.122;2023-08-31T09:27:38;7.68;;;1.80;;
67597;SDS011;62026;39.230;9.122;2023-08-31T09:30:08;7.18;;;1.95;;
67597;SDS011;62026;39.230;9.122;2023-08-31T09:32:35;6.25;;;1.80;;
67597;SDS011;62026;39.230;9.122;2023-08-31T09:35:01;4.50;;;1.50;;
67597;SDS011;62026;39.230;9.122;2023-08-31T09:37:29;13.63;;;1.80;;
67597;SDS011;62026;39.230;9.122;2023-08-31T09:39:54;7.15;;;1.70;;
67597;SDS011;62026;39.230;9.122;2023-08-31T09:42:20;4.85;;;1.70;;
67597;SDS011;62026;39.230;9.122;2023-08-31T09:44:49;8.45;;;1.77;;
67597;SDS011;62026;39.230;9.122;2023-08-31T09:47:15;7.18;;;1.90;;
67597;SDS011;62026;39.230;9.122;2023-08-31T09:49:44;5.43;;;1.90;;
67597;SDS011;62026;39.230;9.122;2023-08-31T09:52:11;5.13;;;1.88;;
67597;SDS011;62026;39.230;9.122;2023-08-31T09:54:39;7.03;;;1.90;;
67597;SDS011;62026;39.230;9.122;2023-08-31T09:57:08;6.00;;;1.90;;
67597;SDS011;62026;39.230;9.122;2023-08-31T09:59:37;5.88;;;1.90;;
67597;SDS011;62026;39.230;9.122;2023-08-31T10:02:06;7.93;;;1.70;;
67597;SDS011;62026;39.230;9.122;2023-08-31T10:04:34;3.97;;;1.60;;
67597;SDS011;62026;39.230;9.122;2023-08-31T10:07:02;6.03;;;2.10;;
67597;SDS011;62026;39.230;9.122;2023-08-31T10:09:30;4.50;;;1.90;;
67597;SDS011;62026;39.230;9.122;2023-08-31T10:11:58;8.10;;;1.75;;
67597;SDS011;62026;39.230;9.122;2023-08-31T10:14:24;6.20;;;1.83;;
67597;SDS011;62026;39.230;9.122;2023-08-31T10:16:51;6.50;;;1.83;;
67597;SDS011;62026;39.230;9.122;2023-08-31T10:19:19;5.78;;;1.88;;
67597;SDS011;62026;39.230;9.122;2023-08-31T10:21:45;5.15;;;2.08;;
67597;SDS011;62026;39.230;9.122;2023-08-31T10:24:11;4.43;;;1.75;;
67597;SDS011;62026;39.230;9.122;2023-08-31T10:26:37;4.57;;;1.55;;
67597;SDS011;62026;39.230;9.122;2023-08-31T10:29:03;6.80;;;1.60;;
67597;SDS011;62026;39.230;9.122;2023-08-31T10:31:30;7.35;;;1.50;;
67597;SDS011;62026;39.230;9.122;2023-08-31T10:41:39;7.25;;;2.30;;
67597;SDS011;62026;39.230;9.122;2023-08-31T10:44:27;8.60;;;2.75;;
67597;SDS011;62026;39.230;9.122;2023-08-31T10:46:55;7.45;;;2.53;;
67597;SDS011;62026;39.230;9.122;2023-08-31T10:49:28;5.05;;;2.25;;
67597;SDS011;62026;39.230;9.122;2023-08-31T10:51:57;6.78;;;1.75;;
67597;SDS011;62026;39.230;9.122;2023-08-31T10:54:45;4.68;;;1.88;;
67597;SDS011;62026;39.230;9.122;2023-08-31T10:57:12;7.22;;;1.80;;
67597;SDS011;62026;39.230;9.122;2023-08-31T10:59:47;4.03;;;1.75;;
67597;SDS011;62026;39.230;9.122;2023-08-31T11:02:29;5.85;;;1.60;;
67597;SDS011;62026;39.230;9.122;2023-08-31T11:05:06;7.95;;;2.03;;
67597;SDS011;62026;39.230;9.122;2023-08-31T11:07:43;3.03;;;1.40;;
67597;SDS011;62026;39.230;9.122;2023-08-31T11:10:24;8.40;;;1.35;;
67597;SDS011;62026;39.230;9.122;2023-08-31T11:12:54;3.70;;;1.55;;
67597;SDS011;62026;39.230;9.122;2023-08-31T11:15:23;4.70;;;1.63;;
67597;SDS011;62026;39.230;9.122;2023-08-31T11:17:52;2.47;;;1.30;;
67597;SDS011;62026;39.230;9.122;2023-08-31T11:20:20;3.97;;;1.67;;
67597;SDS011;62026;39.230;9.122;2023-08-31T11:22:50;2.63;;;1.23;;
67597;SDS011;62026;39.230;9.122;2023-08-31T11:25:19;4.38;;;1.02;;
67597;SDS011;62026;39.230;9.122;2023-08-31T11:27:55;2.80;;;1.33;;
67597;SDS011;62026;39.230;9.122;2023-08-31T11:30:30;4.03;;;1.25;;
67597;SDS011;62026;39.230;9.122;2023-08-31T11:33:01;2.88;;;1.27;;
67597;SDS011;62026;39.230;9.122;2023-08-31T11:35:36;2.47;;;1.20;;
67597;SDS011;62026;39.230;9.122;2023-08-31T11:38:06;3.75;;;1.30;;
67597;SDS011;62026;39.230;9.122;2023-08-31T11:40:32;8.15;;;1.35;;
67597;SDS011;62026;39.230;9.122;2023-08-31T11:42:59;8.18;;;1.85;;
67597;SDS011;62026;39.230;9.122;2023-08-31T11:45:25;4.28;;;1.52;;
67597;SDS011;62026;39.230;9.122;2023-08-31T11:47:53;7.00;;;1.30;;
67597;SDS011;62026;39.230;9.122;2023-08-31T11:50:20;5.43;;;1.25;;
67597;SDS011;62026;39.230;9.122;2023-08-31T11:52:49;5.80;;;1.42;;
67597;SDS011;62026;39.230;9.122;2023-08-31T11:55:18;5.32;;;1.58;;
67597;SDS011;62026;39.230;9.122;2023-08-31T11:57:52;5.03;;;1.50;;
67597;SDS011;62026;39.230;9.122;2023-08-31T12:00:20;2.65;;;1.13;;
67597;SDS011;62026;39.230;9.122;2023-08-31T12:03:00;6.40;;;1.40;;
67597;SDS011;62026;39.230;9.122;2023-08-31T12:05:27;4.30;;;1.48;;
67597;SDS011;62026;39.230;9.122;2023-08-31T12:07:54;4.22;;;1.25;;
67597;SDS011;62026;39.230;9.122;2023-08-31T12:10:23;3.28;;;1.30;;
67597;SDS011;62026;39.230;9.122;2023-08-31T12:12:51;3.75;;;1.25;;
67597;SDS011;62026;39.230;9.122;2023-08-31T12:15:18;3.83;;;1.30;;
67597;SDS011;62026;39.230;9.122;2023-08-31T12:17:47;7.50;;;1.25;;
67597;SDS011;62026;39.230;9.122;2023-08-31T12:20:24;2.95;;;1.30;;
67597;SDS011;62026;39.230;9.122;2023-08-31T12:22:52;6.63;;;1.50;;
67597;SDS011;62026;39.230;9.122;2023-08-31T12:25:21;3.58;;;1.58;;
67597;SDS011;62026;39.230;9.122;2023-08-31T12:27:48;3.47;;;1.00;;
67597;SDS011;62026;39.230;9.122;2023-08-31T12:30:15;3.97;;;1.30;;
67597;SDS011;62026;39.230;9.122;2023-08-31T12:32:41;3.20;;;1.17;;
67597;SDS011;62026;39.230;9.122;2023-08-31T12:35:07;3.97;;;1.48;;
67597;SDS011;62026;39.230;9.122;2023-08-31T12:37:35;3.22;;;1.27;;
67597;SDS011;62026;39.230;9.122;2023-08-31T12:40:01;2.08;;;1.25;;
67597;SDS011;62026;39.230;9.122;2023-08-31T12:42:31;2.47;;;1.20;;
67597;SDS011;62026;39.230;9.122;2023-08-31T12:44:57;3.63;;;1.30;;
67597;SDS011;62026;39.230;9.122;2023-08-31T12:47:23;4.65;;;1.20;;
67597;SDS011;62026;39.230;9.122;2023-08-31T12:49:49;2.53;;;1.35;;
67597;SDS011;62026;39.230;9.122;2023-08-31T12:52:15;4.38;;;1.25;;
67597;SDS011;62026;39.230;9.122;2023-08-31T12:54:41;6.65;;;1.10;;
67597;SDS011;62026;39.230;9.122;2023-08-31T12:57:07;7.35;;;1.40;;
67597;SDS011;62026;39.230;9.122;2023-08-31T12:59:33;5.30;;;1.40;;
67597;SDS011;62026;39.230;9.122;2023-08-31T13:01:59;5.05;;;1.40;;
67597;SDS011;62026;39.230;9.122;2023-08-31T13:04:25;4.63;;;1.20;;
67597;SDS011;62026;39.230;9.122;2023-08-31T13:06:51;5.10;;;1.33;;
67597;SDS011;62026;39.230;9.122;2023-08-31T13:09:17;2.33;;;1.33;;
67597;SDS011;62026;39.230;9.122;2023-08-31T13:11:43;5.25;;;1.50;;
67597;SDS011;62026;39.230;9.122;2023-08-31T13:14:09;3.13;;;1.30;;
67597;SDS011;62026;39.230;9.122;2023-08-31T13:16:35;3.55;;;1.20;;
67597;SDS011;62026;39.230;9.122;2023-08-31T13:19:04;2.75;;;1.30;;
67597;SDS011;62026;39.230;9.122;2023-08-31T13:21:30;2.75;;;1.05;;
67597;SDS011;62026;39.230;9.122;2023-08-31T13:23:56;1.88;;;1.05;;
67597;SDS011;62026;39.230;9.122;2023-08-31T13:26:22;2.83;;;0.90;;
67597;SDS011;62026;39.230;9.122;2023-08-31T13:28:48;3.75;;;1.40;;
67597;SDS011;62026;39.230;9.122;2023-08-31T13:31:14;2.95;;;1.40;;
67597;SDS011;62026;39.230;9.122;2023-08-31T13:33:40;3.40;;;1.23;;
67597;SDS011;62026;39.230;9.122;2023-08-31T13:36:07;2.90;;;1.00;;
67597;SDS011;62026;39.230;9.122;2023-08-31T13:38:34;3.10;;;1.27;;
67597;SDS011;62026;39.230;9.122;2023-08-31T13:41:00;6.82;;;1.30;;
67597;SDS011;62026;39.230;9.122;2023-08-31T13:43:28;2.08;;;1.40;;
67597;SDS011;62026;39.230;9.122;2023-08-31T13:45:54;3.20;;;1.40;;
67597;SDS011;62026;39.230;9.122;2023-08-31T13:48:20;9.45;;;2.25;;
67597;SDS011;62026;39.230;9.122;2023-08-31T13:50:48;2.58;;;1.20;;
67597;SDS011;62026;39.230;9.122;2023-08-31T13:53:14;2.78;;;1.17;;
67597;SDS011;62026;39.230;9.122;2023-08-31T13:55:40;3.28;;;1.20;;
67597;SDS011;62026;39.230;9.122;2023-08-31T13:58:07;5.18;;;1.27;;
67597;SDS011;62026;39.230;9.122;2023-08-31T14:00:34;3.58;;;1.30;;
67597;SDS011;62026;39.230;9.122;2023-08-31T14:03:01;3.08;;;1.10;;
67597;SDS011;62026;39.230;9.122;2023-08-31T14:05:30;3.22;;;1.40;;
67597;SDS011;62026;39.230;9.122;2023-08-31T14:07:57;4.90;;;1.20;;
67597;SDS011;62026;39.230;9.122;2023-08-31T14:10:26;6.80;;;1.42;;
67597;SDS011;62026;39.230;9.122;2023-08-31T14:12:52;4.75;;;1.65;;
67597;SDS011;62026;39.230;9.122;2023-08-31T14:15:18;3.40;;;1.20;;
67597;SDS011;62026;39.230;9.122;2023-08-31T14:17:44;5.85;;;1.30;;
67597;SDS011;62026;39.230;9.122;2023-08-31T14:20:11;5.93;;;1.45;;
67597;SDS011;62026;39.230;9.122;2023-08-31T14:22:37;6.05;;;1.88;;
67597;SDS011;62026;39.230;9.122;2023-08-31T14:25:09;6.40;;;1.40;;
67597;SDS011;62026;39.230;9.122;2023-08-31T14:27:36;3.47;;;1.65;;
67597;SDS011;62026;39.230;9.122;2023-08-31T14:30:04;5.60;;;1.30;;
67597;SDS011;62026;39.230;9.122;2023-08-31T14:32:31;4.03;;;1.27;;
67597;SDS011;62026;39.230;9.122;2023-08-31T14:34:57;6.50;;;1.60;;
67597;SDS011;62026;39.230;9.122;2023-08-31T14:37:24;6.07;;;1.58;;
67597;SDS011;62026;39.230;9.122;2023-08-31T14:39:50;7.28;;;1.70;;
67597;SDS011;62026;39.230;9.122;2023-08-31T14:42:16;4.05;;;1.23;;
67597;SDS011;62026;39.230;9.122;2023-08-31T14:44:46;5.57;;;1.52;;
67597;SDS011;62026;39.230;9.122;2023-08-31T14:47:15;3.95;;;1.38;;
67597;SDS011;62026;39.230;9.122;2023-08-31T14:49:42;6.63;;;1.77;;
67597;SDS011;62026;39.230;9.122;2023-08-31T14:52:08;5.03;;;1.63;;
67597;SDS011;62026;39.230;9.122;2023-08-31T14:54:34;3.33;;;1.50;;
67597;SDS011;62026;39.230;9.122;2023-08-31T14:57:00;8.93;;;1.98;;
67597;SDS011;62026;39.230;9.122;2023-08-31T14:59:29;5.47;;;1.70;;
67597;SDS011;62026;39.230;9.122;2023-08-31T15:01:55;6.07;;;1.70;;
67597;SDS011;62026;39.230;9.122;2023-08-31T15:04:20;7.28;;;1.70;;
67597;SDS011;62026;39.230;9.122;2023-08-31T15:06:47;4.68;;;1.75;;
67597;SDS011;62026;39.230;9.122;2023-08-31T15:09:13;4.40;;;1.60;;